Time;durP1;ratioP1;P1;durP2;ratioP2;P2;SDS_P1;SDS_P2;PMS_P1;PMS_P2;Temp;Humidity;BMP_temperature;BMP_pressure;BME280_temperature;BME280_humidity;BME280_pressure;Samples;Min_cycle;Max_cycle;Signal;HPM_P1;HPM_P2
2022/11/28 00:02:12;;;;;;;20.10;11.15;;;9.00;95.40;;;;;;5107449;28;20023;-58
2022/11/28 00:04:37;;;;;;;17.08;10.07;;;9.00;95.40;;;;;;5125772;28;20072;-58
2022/11/28 00:07:03;;;;;;;18.30;9.77;;;9.00;95.40;;;;;;5125487;28;20031;-57
2022/11/28 00:09:28;;;;;;;23.92;10.52;;;9.00;95.40;;;;;;5107275;28;20069;-57
2022/11/28 00:11:54;;;;;;;24.05;10.52;;;9.00;95.40;;;;;;5125862;28;20096;-58
2022/11/28 00:14:20;;;;;;;18.25;9.60;;;9.00;95.40;;;;;;5125367;28;20179;-58
2022/11/28 00:16:45;;;;;;;20.73;10.07;;;9.00;95.40;;;;;;5125347;28;20032;-58
2022/11/28 00:19:11;;;;;;;16.80;9.43;;;8.90;95.40;;;;;;5107135;28;20464;-58
2022/11/28 00:21:37;;;;;;;23.77;10.02;;;9.00;95.40;;;;;;5090133;28;20027;-58
2022/11/28 00:24:02;;;;;;;23.33;10.52;;;8.90;95.40;;;;;;5107154;28;20055;-58
2022/11/28 00:26:30;;;;;;;19.13;9.43;;;8.90;95.40;;;;;;5106926;28;20035;-58
2022/11/28 00:28:56;;;;;;;19.17;10.07;;;8.90;95.40;;;;;;5125265;28;20146;-58
2022/11/28 00:31:23;;;;;;;20.45;9.65;;;8.90;95.50;;;;;;5106974;28;20110;-58
2022/11/28 00:33:49;;;;;;;15.50;10.02;;;8.90;95.50;;;;;;5107053;28;20042;-58
2022/11/28 00:36:15;;;;;;;13.98;9.63;;;8.90;95.50;;;;;;5125244;28;20024;-58
2022/11/28 00:38:40;;;;;;;17.45;10.27;;;8.90;95.50;;;;;;5125147;28;20024;-58
2022/11/28 00:41:08;;;;;;;15.13;8.77;;;8.80;95.50;;;;;;5124759;28;20338;-58
2022/11/28 00:43:34;;;;;;;19.63;8.88;;;8.80;95.50;;;;;;5106980;28;20047;-58
2022/11/28 00:45:59;;;;;;;16.98;9.73;;;8.90;95.50;;;;;;5107027;28;20465;-58
2022/11/28 00:48:25;;;;;;;20.33;10.05;;;8.80;95.40;;;;;;5125204;28;20138;-58
2022/11/28 00:50:51;;;;;;;15.45;9.43;;;8.90;95.40;;;;;;5106630;28;20511;-58
2022/11/28 00:53:16;;;;;;;20.75;10.43;;;8.80;95.40;;;;;;5089969;28;20042;-58
2022/11/28 00:55:42;;;;;;;21.58;8.82;;;8.80;95.50;;;;;;5106621;28;20043;-58
2022/11/28 00:58:08;;;;;;;17.27;9.52;;;8.80;95.70;;;;;;5106773;28;20032;-58
2022/11/28 01:00:33;;;;;;;14.55;9.23;;;8.80;95.50;;;;;;5106614;28;20038;-58
2022/11/28 01:02:59;;;;;;;20.33;9.98;;;8.80;95.50;;;;;;5106693;28;20188;-58
2022/11/28 01:05:25;;;;;;;16.13;10.55;;;8.80;95.50;;;;;;5124784;28;20031;-58
2022/11/28 01:07:50;;;;;;;17.17;9.82;;;8.80;95.60;;;;;;5106651;28;20032;-58
2022/11/28 01:10:16;;;;;;;15.98;8.95;;;8.80;95.60;;;;;;5128192;28;20073;-58
2022/11/28 01:12:42;;;;;;;13.95;9.13;;;8.80;95.60;;;;;;5110612;28;20059;-58
2022/11/28 01:15:08;;;;;;;13.23;9.13;;;8.70;95.60;;;;;;5128610;28;20023;-58
2022/11/28 01:17:34;;;;;;;12.88;9.30;;;8.80;95.60;;;;;;5110360;28;20024;-58
2022/11/28 01:19:59;;;;;;;23.70;9.95;;;8.80;95.70;;;;;;5128365;28;20038;-58
2022/11/28 01:22:25;;;;;;;12.52;8.98;;;8.80;95.70;;;;;;5110362;28;20020;-58
2022/11/28 01:24:50;;;;;;;12.95;8.55;;;8.70;95.70;;;;;;5128781;28;20028;-58
2022/11/28 01:27:16;;;;;;;14.25;9.27;;;8.70;95.60;;;;;;5110341;28;20031;-58
2022/11/28 01:29:41;;;;;;;12.80;8.73;;;8.70;95.60;;;;;;5110275;28;20032;-57
2022/11/28 01:32:07;;;;;;;11.77;9.02;;;8.70;95.70;;;;;;5111456;28;20201;-58
2022/11/28 01:34:33;;;;;;;11.82;8.50;;;8.70;95.70;;;;;;5095283;28;20063;-58
2022/11/28 01:36:59;;;;;;;13.32;8.82;;;8.70;95.70;;;;;;5129102;28;20039;-57
2022/11/28 01:39:24;;;;;;;14.48;9.38;;;8.70;95.70;;;;;;5110611;28;20030;-58
2022/11/28 01:41:50;;;;;;;17.15;9.32;;;8.70;95.70;;;;;;5128277;28;20024;-58
2022/11/28 01:44:15;;;;;;;10.82;8.10;;;8.70;95.70;;;;;;5110110;28;20020;-58
2022/11/28 01:46:41;;;;;;;15.38;8.52;;;8.70;95.80;;;;;;5109785;28;20031;-58
2022/11/28 01:49:10;;;;;;;11.93;8.82;;;8.70;95.80;;;;;;5128038;28;20039;-58
2022/11/28 01:51:36;;;;;;;13.13;8.57;;;8.70;95.80;;;;;;5092520;28;20155;-58
2022/11/28 01:54:02;;;;;;;15.60;9.07;;;8.70;95.70;;;;;;5109607;28;20460;-58
2022/11/28 01:56:34;;;;;;;14.88;8.82;;;8.70;95.70;;;;;;5109448;28;20057;-58
2022/11/28 01:59:02;;;;;;;15.27;9.27;;;8.70;95.80;;;;;;5076508;28;20027;-58
2022/11/28 02:01:27;;;;;;;14.15;9.15;;;8.70;95.80;;;;;;5127865;28;20127;-58
2022/11/28 02:03:53;;;;;;;16.10;9.00;;;8.60;95.70;;;;;;5109594;28;20158;-58
2022/11/28 02:06:21;;;;;;;12.07;8.45;;;8.60;95.70;;;;;;5092428;28;20097;-58
2022/11/28 02:08:50;;;;;;;16.05;8.63;;;8.70;95.80;;;;;;5092871;28;20061;-58
2022/11/28 02:11:37;;;;;;;10.65;7.95;;;8.70;95.80;;;;;;5092576;28;20042;-58
2022/11/28 02:14:17;;;;;;;13.63;8.18;;;8.60;96.10;;;;;;5127799;28;20031;-59
2022/11/28 02:17:17;;;;;;;12.82;8.40;;;8.70;95.90;;;;;;5109166;28;20031;-58
2022/11/28 02:19:45;;;;;;;11.02;7.97;;;8.60;95.80;;;;;;5127236;28;20035;-58
2022/11/28 02:22:17;;;;;;;12.90;8.35;;;8.60;95.90;;;;;;5109083;28;20022;-58
2022/11/28 02:24:55;;;;;;;14.80;8.57;;;8.60;95.90;;;;;;5110024;28;20077;-58
2022/11/28 02:27:42;;;;;;;11.85;8.32;;;8.60;95.90;;;;;;5127272;28;20047;-58
2022/11/28 02:30:14;;;;;;;11.57;8.20;;;8.60;95.90;;;;;;5127447;28;20388;-58
2022/11/28 02:33:05;;;;;;;10.15;8.00;;;8.60;95.90;;;;;;5109447;28;20031;-58
2022/11/28 02:35:34;;;;;;;12.93;8.63;;;8.50;96.00;;;;;;5108635;28;20095;-58
2022/11/28 02:38:15;;;;;;;14.15;8.35;;;8.50;96.00;;;;;;5091790;28;20454;-58
2022/11/28 02:41:07;;;;;;;11.75;7.97;;;8.50;96.00;;;;;;5127051;28;20044;-58
2022/11/28 02:43:41;;;;;;;12.30;8.50;;;8.50;96.00;;;;;;5108735;28;20496;-58
2022/11/28 02:46:21;;;;;;;15.60;8.33;;;8.50;96.30;;;;;;5091586;28;20031;-58
2022/11/28 02:48:56;;;;;;;12.93;7.85;;;8.50;96.00;;;;;;5091823;28;20338;-58
2022/11/28 02:51:36;;;;;;;13.65;8.80;;;8.50;96.00;;;;;;5092491;28;20019;-58
2022/11/28 02:54:02;;;;;;;12.57;7.93;;;8.50;96.00;;;;;;5108726;28;20032;-58
2022/11/28 02:56:28;;;;;;;11.20;7.68;;;8.50;96.00;;;;;;5091259;28;20032;-58
2022/11/28 02:58:53;;;;;;;10.60;7.30;;;8.50;96.00;;;;;;5108697;28;20031;-58
2022/11/28 03:01:28;;;;;;;9.57;7.45;;;8.50;96.00;;;;;;5108683;28;20046;-58
2022/11/28 03:04:09;;;;;;;9.75;7.65;;;8.50;96.10;;;;;;5108347;28;20023;-58
2022/11/28 03:06:51;;;;;;;10.75;7.82;;;8.50;96.10;;;;;;5126528;28;20164;-57
2022/11/28 03:09:55;;;;;;;11.32;8.40;;;8.50;96.10;;;;;;5093245;28;20032;-58
2022/11/28 03:13:04;;;;;;;12.57;7.35;;;8.50;96.10;;;;;;5126573;28;20103;-58
2022/11/28 03:15:43;;;;;;;10.27;7.07;;;8.50;96.10;;;;;;5077549;28;20076;-58
2022/11/28 03:18:20;;;;;;;9.90;7.28;;;8.50;96.10;;;;;;5109982;28;20038;-58
2022/11/28 03:20:53;;;;;;;10.93;7.55;;;8.50;96.10;;;;;;5091508;28;20023;-58
2022/11/28 03:23:27;;;;;;;10.75;7.38;;;8.60;96.10;;;;;;5107951;28;20032;-58
2022/11/28 03:26:12;;;;;;;12.20;7.32;;;8.50;96.10;;;;;;5126084;28;20038;-58
2022/11/28 03:28:47;;;;;;;11.25;7.07;;;8.50;96.20;;;;;;5107981;28;20046;-58
2022/11/28 03:31:20;;;;;;;14.00;7.50;;;8.60;96.20;;;;;;5125519;28;20039;-58
2022/11/28 03:33:57;;;;;;;11.68;7.25;;;8.60;96.10;;;;;;5107918;28;20028;-58
2022/11/28 03:36:25;;;;;;;10.30;6.80;;;8.60;96.10;;;;;;5090813;28;20053;-58
2022/11/28 03:38:54;;;;;;;11.52;6.85;;;8.60;96.10;;;;;;5090873;28;20020;-57
2022/11/28 03:41:45;;;;;;;9.30;7.55;;;8.60;96.20;;;;;;5090838;28;20028;-58
2022/11/28 03:44:14;;;;;;;9.43;7.38;;;8.60;96.20;;;;;;5099867;28;20028;-58
2022/11/28 03:46:46;;;;;;;11.15;7.55;;;8.50;96.10;;;;;;5091080;28;20039;-58
2022/11/28 03:49:14;;;;;;;11.45;7.05;;;8.60;96.20;;;;;;5107459;28;20096;-58
2022/11/28 03:51:46;;;;;;;12.98;7.30;;;8.60;96.20;;;;;;5090897;28;20032;-58
2022/11/28 03:54:16;;;;;;;10.90;7.57;;;8.60;96.20;;;;;;5090832;28;20032;-58
2022/11/28 03:57:00;;;;;;;10.07;7.22;;;8.60;96.20;;;;;;5107116;28;20067;-58
2022/11/28 03:59:39;;;;;;;11.85;7.80;;;8.60;96.20;;;;;;5125596;28;20406;-58
2022/11/28 04:02:27;;;;;;;8.80;7.10;;;8.50;96.20;;;;;;5091809;28;20046;-58
2022/11/28 04:05:03;;;;;;;12.00;7.30;;;8.60;96.20;;;;;;5107275;28;20028;-58
2022/11/28 04:07:46;;;;;;;12.63;8.10;;;8.60;96.30;;;;;;5091375;28;20525;-58
2022/11/28 04:10:19;;;;;;;11.15;7.60;;;8.50;96.20;;;;;;5091233;28;20038;-58
2022/11/28 04:13:11;;;;;;;9.45;7.13;;;8.50;96.20;;;;;;5090954;28;20032;-58
2022/11/28 04:15:43;;;;;;;10.38;7.25;;;8.50;96.20;;;;;;5074343;28;20032;-58
2022/11/28 04:18:17;;;;;;;9.50;7.55;;;8.50;96.20;;;;;;5090965;28;20036;-58
2022/11/28 04:21:10;;;;;;;10.30;7.15;;;8.50;96.20;;;;;;5125208;28;20031;-58
2022/11/28 04:23:36;;;;;;;10.13;7.25;;;8.50;96.20;;;;;;5096318;28;20031;-58
2022/11/28 04:26:04;;;;;;;9.10;7.07;;;8.50;96.20;;;;;;5090166;28;20054;-58
2022/11/28 04:28:31;;;;;;;10.27;7.22;;;8.60;96.30;;;;;;5090168;28;20031;-58
2022/11/28 04:30:57;;;;;;;10.80;7.20;;;8.50;96.20;;;;;;5090276;28;20103;-58
2022/11/28 04:33:23;;;;;;;11.70;6.97;;;8.50;96.20;;;;;;5073356;28;20035;-58
2022/11/28 04:35:50;;;;;;;10.75;7.55;;;8.50;96.50;;;;;;5089931;28;20067;-58
2022/11/28 04:38:16;;;;;;;13.70;7.50;;;8.60;96.30;;;;;;5106803;28;20020;-58
2022/11/28 04:40:51;;;;;;;10.75;7.43;;;8.50;96.30;;;;;;5089876;28;20081;-58
2022/11/28 04:43:19;;;;;;;9.97;7.50;;;8.50;96.30;;;;;;5107939;28;20035;-58
2022/11/28 04:45:50;;;;;;;11.05;7.05;;;8.50;96.30;;;;;;5111006;28;20283;-58
2022/11/28 04:48:16;;;;;;;8.80;7.13;;;8.50;96.30;;;;;;5094523;28;20059;-58
2022/11/28 04:50:46;;;;;;;8.98;7.28;;;8.50;96.30;;;;;;5094131;28;20046;-58
2022/11/28 04:53:15;;;;;;;8.60;7.47;;;8.50;96.30;;;;;;5111336;28;20024;-58
2022/11/28 04:55:46;;;;;;;12.68;7.60;;;8.50;96.20;;;;;;5093991;28;20031;-58
2022/11/28 04:58:39;;;;;;;8.77;7.03;;;8.50;96.20;;;;;;5094151;28;20028;-58
2022/11/28 05:01:06;;;;;;;10.70;7.13;;;8.50;96.30;;;;;;5106172;28;20110;-58
2022/11/28 05:03:32;;;;;;;8.55;7.65;;;8.50;96.30;;;;;;5093918;28;20053;-58
2022/11/28 05:05:57;;;;;;;12.13;7.53;;;8.50;96.30;;;;;;5093688;28;20076;-58
2022/11/28 05:08:23;;;;;;;12.63;7.15;;;8.50;96.30;;;;;;5111092;28;20028;-58
2022/11/28 05:10:49;;;;;;;18.15;7.15;;;8.50;96.30;;;;;;5093890;28;20039;-58
2022/11/28 05:13:15;;;;;;;12.32;7.63;;;8.50;96.30;;;;;;5111145;28;20031;-58
2022/11/28 05:15:40;;;;;;;13.50;7.10;;;8.50;96.30;;;;;;5110484;28;20029;-58
2022/11/28 05:18:06;;;;;;;22.80;8.05;;;8.50;96.30;;;;;;5093708;28;20028;-58
2022/11/28 05:20:31;;;;;;;14.82;6.82;;;8.50;96.30;;;;;;5128532;28;20030;-58
2022/11/28 05:22:57;;;;;;;11.27;6.90;;;8.50;96.40;;;;;;5109891;28;20076;-58
2022/11/28 05:25:22;;;;;;;19.08;8.07;;;8.50;96.40;;;;;;5110287;28;20028;-58
2022/11/28 05:27:48;;;;;;;18.75;7.93;;;8.50;96.40;;;;;;5092878;28;20032;-58
2022/11/28 05:30:13;;;;;;;22.52;7.90;;;8.50;96.40;;;;;;5128428;28;20062;-58
2022/11/28 05:32:39;;;;;;;11.20;7.60;;;8.50;96.40;;;;;;5110013;28;20035;-58
2022/11/28 05:35:05;;;;;;;14.45;7.70;;;8.50;96.30;;;;;;5110092;28;20124;-58
2022/11/28 05:37:31;;;;;;;16.15;7.53;;;8.50;96.40;;;;;;5093026;28;20031;-58
2022/11/28 05:39:56;;;;;;;16.15;7.45;;;8.50;96.40;;;;;;5128340;28;20027;-58
2022/11/28 05:42:22;;;;;;;12.07;7.20;;;8.50;96.40;;;;;;5128006;28;20373;-58
2022/11/28 05:44:47;;;;;;;13.32;7.47;;;8.50;96.40;;;;;;5128166;28;20060;-59
2022/11/28 05:47:14;;;;;;;15.82;7.60;;;8.50;96.40;;;;;;5127767;28;20108;-58
2022/11/28 05:49:40;;;;;;;10.07;6.95;;;8.50;96.40;;;;;;5109843;28;20023;-58
2022/11/28 05:52:06;;;;;;;18.13;7.70;;;8.50;96.40;;;;;;5109750;28;20053;-58
2022/11/28 05:54:31;;;;;;;15.68;7.38;;;8.50;96.40;;;;;;5127351;28;20023;-58
2022/11/28 05:56:57;;;;;;;17.63;7.43;;;8.50;96.40;;;;;;5092700;28;20061;-58
2022/11/28 05:59:22;;;;;;;14.43;7.65;;;8.50;96.60;;;;;;5109393;28;20023;-58
2022/11/28 06:01:48;;;;;;;17.23;7.18;;;8.50;96.40;;;;;;5092517;28;20032;-58
2022/11/28 06:04:14;;;;;;;13.65;7.32;;;8.50;96.50;;;;;;5109386;28;20027;-58
2022/11/28 06:06:39;;;;;;;14.70;6.65;;;8.50;96.50;;;;;;5109480;28;20023;-58
2022/11/28 06:09:05;;;;;;;10.27;6.97;;;8.50;96.60;;;;;;5109292;28;20028;-58
2022/11/28 06:11:31;;;;;;;18.33;7.47;;;8.50;96.60;;;;;;5092376;28;20039;-58
2022/11/28 06:13:56;;;;;;;9.73;6.85;;;8.50;96.70;;;;;;5075645;28;20508;-58
2022/11/28 06:16:24;;;;;;;10.95;6.45;;;8.50;96.70;;;;;;5109141;28;20031;-58
2022/11/28 06:18:57;;;;;;;17.33;7.28;;;8.50;96.80;;;;;;5092228;28;20031;-58
2022/11/28 06:21:22;;;;;;;10.70;6.65;;;8.50;96.80;;;;;;5092764;28;20063;-58
2022/11/28 06:23:48;;;;;;;15.63;7.47;;;8.50;96.80;;;;;;5127395;28;20028;-58
2022/11/28 06:26:15;;;;;;;29.27;7.82;;;8.50;96.80;;;;;;5127416;28;20027;-58
2022/11/28 06:28:41;;;;;;;9.27;6.53;;;8.50;96.80;;;;;;5109171;28;20046;-58
2022/11/28 06:31:14;;;;;;;10.90;7.05;;;8.50;96.90;;;;;;5108950;28;20056;-58
2022/11/28 06:33:40;;;;;;;9.07;6.90;;;8.50;96.90;;;;;;5109179;28;20480;-58
2022/11/28 06:36:06;;;;;;;17.55;6.45;;;8.40;96.80;;;;;;5075267;28;20035;-58
2022/11/28 06:38:32;;;;;;;10.80;7.00;;;8.50;96.90;;;;;;5108910;28;20453;-58
2022/11/28 06:40:58;;;;;;;14.25;6.53;;;8.40;96.90;;;;;;5091996;28;20046;-58
2022/11/28 06:43:24;;;;;;;12.18;7.10;;;8.50;96.90;;;;;;5127087;28;20082;-58
2022/11/28 06:45:50;;;;;;;12.27;7.40;;;8.50;96.90;;;;;;5108649;28;20027;-58
2022/11/28 06:48:15;;;;;;;13.73;7.50;;;8.50;96.90;;;;;;5127232;28;20100;-58
2022/11/28 06:50:41;;;;;;;11.52;7.05;;;8.50;96.90;;;;;;5108694;28;20090;-58
2022/11/28 06:53:06;;;;;;;8.85;6.90;;;8.50;96.90;;;;;;5108709;28;20028;-58
2022/11/28 06:55:32;;;;;;;13.18;7.70;;;8.40;96.80;;;;;;5108592;28;20396;-58
2022/11/28 06:57:57;;;;;;;9.70;6.95;;;8.40;96.80;;;;;;5127116;28;20477;-58
2022/11/28 07:00:23;;;;;;;10.02;6.93;;;8.40;96.80;;;;;;5126799;28;20042;-58
2022/11/28 07:02:49;;;;;;;15.30;7.72;;;8.40;96.80;;;;;;5108481;28;20028;-58
2022/11/28 07:05:15;;;;;;;13.85;7.32;;;8.40;96.80;;;;;;5108140;28;20044;-58
2022/11/28 07:07:41;;;;;;;12.88;7.32;;;8.40;96.80;;;;;;5107113;28;20023;-58
2022/11/28 07:10:07;;;;;;;9.48;6.72;;;8.40;96.80;;;;;;5108372;28;20160;-58
2022/11/28 07:12:33;;;;;;;16.83;7.88;;;8.40;96.80;;;;;;5126728;28;20019;-58
2022/11/28 07:14:58;;;;;;;12.02;6.63;;;8.40;96.80;;;;;;5091030;28;20042;-58
2022/11/28 07:17:24;;;;;;;11.65;7.70;;;8.40;96.80;;;;;;5107976;28;20034;-57
2022/11/28 07:19:49;;;;;;;11.10;7.72;;;8.40;96.80;;;;;;5126358;28;20111;-58
2022/11/28 07:22:15;;;;;;;10.27;7.05;;;8.40;96.80;;;;;;5107927;28;20493;-58
2022/11/28 07:24:40;;;;;;;8.90;6.65;;;8.40;96.80;;;;;;5108096;28;20023;-58
2022/11/28 07:27:06;;;;;;;12.77;7.20;;;8.40;96.80;;;;;;5107976;28;20024;-58
2022/11/28 07:29:35;;;;;;;12.30;7.35;;;8.50;96.80;;;;;;5126065;28;20028;-58
2022/11/28 07:32:05;;;;;;;10.40;7.03;;;8.40;96.80;;;;;;5108350;28;20334;-58
2022/11/28 07:34:30;;;;;;;11.00;6.85;;;8.40;96.90;;;;;;5107977;28;20038;-58
2022/11/28 07:36:56;;;;;;;13.52;6.97;;;8.40;96.80;;;;;;5107540;28;20083;-58
2022/11/28 07:39:22;;;;;;;9.02;7.15;;;8.40;96.80;;;;;;5090902;28;20444;-58
2022/11/28 07:41:47;;;;;;;13.27;7.53;;;8.40;96.80;;;;;;5107274;28;20053;-58
2022/11/28 07:44:16;;;;;;;11.90;7.65;;;8.50;96.80;;;;;;5107425;28;20053;-58
2022/11/28 07:46:42;;;;;;;10.45;6.90;;;8.40;96.80;;;;;;5108233;28;20035;-58
2022/11/28 07:49:08;;;;;;;10.48;7.30;;;8.40;96.80;;;;;;5107705;28;20032;-58
2022/11/28 07:51:33;;;;;;;11.38;7.57;;;8.40;96.80;;;;;;5091058;28;20036;-58
2022/11/28 07:54:00;;;;;;;9.75;7.32;;;8.40;96.80;;;;;;5108105;28;20086;-58
2022/11/28 07:56:27;;;;;;;11.18;7.47;;;8.40;96.80;;;;;;5090701;28;20036;-58
2022/11/28 07:58:53;;;;;;;11.18;7.40;;;8.40;96.80;;;;;;5091489;28;20138;-58
2022/11/28 08:01:23;;;;;;;9.57;7.80;;;8.40;96.80;;;;;;5090486;28;20057;-56
2022/11/28 08:03:49;;;;;;;10.68;7.40;;;8.40;96.80;;;;;;5107644;28;20020;-58
2022/11/28 08:06:15;;;;;;;11.15;7.40;;;8.50;96.80;;;;;;5094988;28;20053;-58
2022/11/28 08:08:41;;;;;;;12.35;7.25;;;8.50;96.80;;;;;;5103347;28;20020;-58
2022/11/28 08:11:07;;;;;;;12.63;7.68;;;8.50;96.80;;;;;;5106704;28;20032;-58
2022/11/28 08:13:33;;;;;;;18.83;8.50;;;8.50;96.80;;;;;;5121487;28;20134;-58
2022/11/28 08:16:06;;;;;;;10.07;7.60;;;8.50;96.80;;;;;;5114899;28;20051;-58
2022/11/28 08:18:32;;;;;;;13.82;8.70;;;8.40;96.80;;;;;;5068624;28;20036;-58
2022/11/28 08:21:05;;;;;;;12.38;8.10;;;8.50;96.90;;;;;;5084556;28;20048;-58
2022/11/28 08:23:32;;;;;;;16.60;8.55;;;8.50;96.90;;;;;;5100039;28;20031;-58
2022/11/28 08:26:02;;;;;;;15.13;8.70;;;8.50;96.80;;;;;;5103739;28;20027;-58
2022/11/28 08:28:28;;;;;;;12.63;7.95;;;8.50;96.80;;;;;;5124556;28;20119;-56
2022/11/28 08:30:54;;;;;;;15.63;7.63;;;8.50;96.80;;;;;;5089355;28;20080;-56
2022/11/28 08:33:21;;;;;;;18.10;8.05;;;8.50;96.80;;;;;;5122312;28;20071;-55
2022/11/28 08:35:46;;;;;;;11.52;8.05;;;8.50;96.90;;;;;;5087755;28;20123;-56
2022/11/28 08:38:12;;;;;;;16.00;7.72;;;8.50;96.90;;;;;;5103524;28;20092;-55
2022/11/28 08:40:37;;;;;;;17.48;8.55;;;8.50;96.90;;;;;;5103722;28;20126;-56
2022/11/28 08:43:03;;;;;;;23.92;8.18;;;8.60;97.00;;;;;;5122398;28;20059;-56
2022/11/28 08:45:28;;;;;;;17.35;8.40;;;8.50;96.90;;;;;;5103910;28;20027;-56
2022/11/28 08:47:54;;;;;;;17.58;9.40;;;8.60;97.00;;;;;;5124267;28;20036;-56
2022/11/28 08:50:19;;;;;;;26.30;10.13;;;8.60;97.00;;;;;;5106938;28;20032;-56
2022/11/28 08:52:45;;;;;;;34.72;10.43;;;8.60;97.00;;;;;;5123654;28;20027;-56
2022/11/28 08:55:10;;;;;;;45.60;9.88;;;8.60;97.00;;;;;;5089051;28;20039;-56
2022/11/28 08:57:36;;;;;;;32.17;10.15;;;8.60;97.00;;;;;;5116896;28;20016;-55
2022/11/28 09:00:01;;;;;;;42.28;11.35;;;8.60;97.00;;;;;;5104205;28;20060;-56
2022/11/28 09:02:27;;;;;;;32.92;11.18;;;8.60;97.10;;;;;;5104390;28;20031;-56
2022/11/28 09:04:52;;;;;;;50.80;12.65;;;8.70;97.20;;;;;;5113796;28;20103;-55
2022/11/28 09:07:18;;;;;;;43.33;11.15;;;8.70;97.20;;;;;;5104649;28;20027;-56
2022/11/28 09:09:44;;;;;;;32.00;10.65;;;8.70;97.30;;;;;;5106467;28;20043;-56
2022/11/28 09:12:09;;;;;;;46.03;11.63;;;8.70;97.40;;;;;;5106134;28;20101;-56
2022/11/28 09:14:35;;;;;;;45.30;12.48;;;8.70;97.40;;;;;;5104830;28;20023;-56
2022/11/28 09:17:00;;;;;;;37.17;12.07;;;8.70;97.30;;;;;;5105225;28;20038;-56
2022/11/28 09:19:26;;;;;;;39.60;12.10;;;8.70;97.40;;;;;;5105687;28;20035;-56
2022/11/28 09:21:51;;;;;;;55.70;12.55;;;8.80;97.40;;;;;;5105626;28;20028;-56
2022/11/28 09:24:17;;;;;;;92.78;16.90;;;8.80;97.40;;;;;;5124488;28;20028;-56
2022/11/28 09:26:43;;;;;;;52.35;13.13;;;8.80;97.40;;;;;;5121396;28;20081;-55
2022/11/28 09:29:08;;;;;;;59.67;12.48;;;8.80;97.40;;;;;;5121876;28;20040;-56
2022/11/28 09:31:34;;;;;;;41.13;12.07;;;8.80;97.50;;;;;;5128020;28;20043;-56
2022/11/28 09:33:59;;;;;;;84.05;16.08;;;8.80;97.40;;;;;;5126773;28;20081;-56
2022/11/28 09:36:27;;;;;;;52.25;13.95;;;8.80;97.40;;;;;;5108594;28;20034;-56
2022/11/28 09:38:52;;;;;;;56.17;13.75;;;8.80;97.40;;;;;;5106921;28;20035;-56
2022/11/28 09:41:57;;;;;;;48.13;13.70;;;8.80;97.30;;;;;;5125665;28;20077;-56
2022/11/28 09:44:49;;;;;;;58.88;14.68;;;8.90;97.30;;;;;;5127487;28;20055;-55
2022/11/28 09:47:23;;;;;;;57.00;15.70;;;8.90;97.40;;;;;;5107876;28;20099;-54
2022/11/28 09:49:57;;;;;;;76.28;15.10;;;8.90;97.50;;;;;;5107673;28;20055;-56
2022/11/28 09:52:52;;;;;;;66.60;13.52;;;9.00;97.50;;;;;;5104464;28;20076;-56
2022/11/28 09:55:38;;;;;;;67.25;14.48;;;9.00;97.40;;;;;;5109085;28;20095;-56
2022/11/28 09:58:09;;;;;;;51.00;13.45;;;9.00;97.20;;;;;;5105843;28;20069;-56
2022/11/28 10:00:36;;;;;;;52.33;15.02;;;9.00;97.30;;;;;;5106500;28;20090;-56
2022/11/28 10:03:26;;;;;;;68.22;13.15;;;9.00;97.30;;;;;;5072201;28;20024;-55
2022/11/28 10:06:12;;;;;;;51.25;13.52;;;9.00;97.30;;;;;;5105910;28;20146;-56
2022/11/28 10:08:51;;;;;;;64.53;13.48;;;9.00;97.30;;;;;;5137132;27;20118;-55
2022/11/28 10:11:30;;;;;;;44.38;13.55;;;9.10;97.30;;;;;;5106844;28;20035;-56
2022/11/28 10:14:01;;;;;;;56.38;15.23;;;9.20;97.30;;;;;;5109007;28;20460;-56
2022/11/28 10:16:41;;;;;;;66.90;15.88;;;9.20;97.30;;;;;;5123901;28;20027;-56
2022/11/28 10:19:14;;;;;;;63.55;15.38;;;9.20;97.20;;;;;;5098789;28;20028;-56
2022/11/28 10:21:46;;;;;;;78.72;15.02;;;9.20;97.20;;;;;;5091500;28;20038;-55
2022/11/28 10:24:16;;;;;;;86.15;16.40;;;9.20;97.20;;;;;;5075666;28;20027;-56
2022/11/28 10:26:44;;;;;;;96.45;16.08;;;9.30;97.20;;;;;;5091685;28;20023;-56
2022/11/28 10:29:19;;;;;;;89.78;17.08;;;9.30;97.20;;;;;;5095602;28;20040;-58
2022/11/28 10:31:44;;;;;;;77.13;16.75;;;9.30;97.20;;;;;;5097302;28;20028;-59
2022/11/28 10:34:20;;;;;;;70.53;14.90;;;9.40;97.30;;;;;;5083224;28;20038;-58
2022/11/28 10:37:05;;;;;;;68.68;14.98;;;9.40;97.30;;;;;;5108444;28;20039;-58
2022/11/28 10:39:31;;;;;;;93.50;17.67;;;9.40;97.30;;;;;;5123684;28;20023;-58
2022/11/28 10:42:26;;;;;;;71.25;16.27;;;9.40;97.10;;;;;;5090887;28;20027;-58
2022/11/28 10:44:55;;;;;;;99.53;18.40;;;9.40;97.30;;;;;;5019459;28;20045;-58
2022/11/28 10:47:58;;;;;;;99.80;16.80;;;9.50;97.50;;;;;;5102441;28;20346;-58
2022/11/28 10:50:48;;;;;;;81.78;16.48;;;9.50;97.50;;;;;;5126311;28;20115;-58
2022/11/28 10:53:17;;;;;;;83.78;15.68;;;9.50;97.40;;;;;;5106138;28;20032;-59
2022/11/28 10:55:54;;;;;;;82.22;16.13;;;9.60;97.60;;;;;;5123046;28;20093;-58
2022/11/28 10:58:27;;;;;;;73.35;15.43;;;9.60;97.40;;;;;;5112178;28;20028;-58
2022/11/28 11:00:53;;;;;;;107.93;18.52;;;9.60;97.30;;;;;;5071649;28;20088;-58
2022/11/28 11:03:19;;;;;;;78.38;15.95;;;9.70;97.30;;;;;;5104995;28;20027;-58
2022/11/28 11:05:44;;;;;;;109.78;17.70;;;9.70;97.30;;;;;;5074054;28;20023;-58
2022/11/28 11:08:27;;;;;;;94.00;16.98;;;9.70;97.30;;;;;;5107804;28;20027;-58
2022/11/28 11:11:16;;;;;;;102.63;18.55;;;9.80;97.50;;;;;;5122791;28;20042;-58
2022/11/28 11:14:01;;;;;;;94.07;18.52;;;9.80;97.50;;;;;;5093063;28;20032;-58
2022/11/28 11:16:47;;;;;;;94.55;16.83;;;9.80;97.50;;;;;;5107400;28;20070;-58
2022/11/28 11:19:22;;;;;;;86.90;16.73;;;9.90;97.50;;;;;;5105226;28;20051;-58
2022/11/28 11:22:17;;;;;;;72.75;15.48;;;9.90;97.50;;;;;;5100354;28;20023;-58
2022/11/28 11:24:43;;;;;;;95.25;14.80;;;9.90;97.40;;;;;;5122528;28;20028;-58
2022/11/28 11:27:21;;;;;;;91.60;17.00;;;9.90;97.30;;;;;;5122560;28;20107;-58
2022/11/28 11:29:46;;;;;;;88.10;16.88;;;10.00;97.40;;;;;;5096707;28;20032;-58
2022/11/28 11:32:38;;;;;;;134.80;21.05;;;10.00;97.40;;;;;;5105418;28;20066;-58
2022/11/28 11:35:04;;;;;;;87.22;17.20;;;10.00;97.40;;;;;;5087797;28;20032;-58
2022/11/28 11:37:37;;;;;;;134.20;19.20;;;10.10;97.50;;;;;;5111131;28;20031;-58
2022/11/28 11:40:17;;;;;;;90.45;17.15;;;10.10;97.40;;;;;;5104431;28;20034;-58
2022/11/28 11:42:59;;;;;;;81.07;14.57;;;10.10;97.40;;;;;;5093503;28;20032;-58
2022/11/28 11:45:33;;;;;;;74.55;15.57;;;10.10;97.40;;;;;;5078865;28;20011;-58
2022/11/28 11:47:58;;;;;;;93.85;15.77;;;10.10;97.40;;;;;;5080124;28;20122;-59
2022/11/28 11:50:27;;;;;;;105.63;17.40;;;10.20;97.40;;;;;;5122781;28;20105;-58
2022/11/28 11:53:03;;;;;;;111.75;16.83;;;10.20;97.40;;;;;;5087203;28;20026;-58
2022/11/28 11:55:30;;;;;;;143.18;18.90;;;10.30;97.40;;;;;;5122682;28;20027;-58
2022/11/28 11:57:55;;;;;;;129.07;18.48;;;10.30;97.30;;;;;;5066826;28;20032;-58
2022/11/28 12:00:39;;;;;;;108.40;16.92;;;10.30;97.20;;;;;;5084751;28;20449;-59
2022/11/28 12:03:28;;;;;;;111.13;17.70;;;10.30;97.20;;;;;;5102444;28;20036;-58
2022/11/28 12:05:55;;;;;;;134.82;17.73;;;10.40;97.10;;;;;;5105919;28;20047;-58
2022/11/28 12:08:34;;;;;;;120.95;17.70;;;10.40;96.90;;;;;;5102391;28;20096;-59
2022/11/28 12:11:25;;;;;;;91.03;15.27;;;10.40;96.90;;;;;;5077036;28;20043;-58
2022/11/28 12:13:51;;;;;;;91.45;16.13;;;10.40;96.80;;;;;;5096760;28;20051;-58
2022/11/28 12:16:47;;;;;;;118.13;16.63;;;10.50;96.80;;;;;;5086091;28;20086;-58
2022/11/28 12:19:28;;;;;;;107.00;16.40;;;10.50;96.60;;;;;;5085398;28;20469;-59
2022/11/28 12:22:18;;;;;;;74.78;14.85;;;10.50;96.50;;;;;;5121583;28;20096;-58
2022/11/28 12:25:07;;;;;;;86.47;14.20;;;10.50;96.40;;;;;;5104456;28;20038;-58
2022/11/28 12:27:56;;;;;;;92.63;15.13;;;10.60;96.20;;;;;;5089119;28;20085;-58
2022/11/28 12:30:32;;;;;;;61.45;13.05;;;10.60;95.90;;;;;;5105304;28;20270;-58
2022/11/28 12:33:15;;;;;;;68.28;12.55;;;10.60;95.60;;;;;;5088916;28;20024;-58
2022/11/28 12:35:43;;;;;;;300.27;29.95;;;10.60;95.70;;;;;;5121677;28;20169;-58
2022/11/28 12:38:35;;;;;;;98.85;15.32;;;10.60;95.70;;;;;;5087764;28;20464;-58
2022/11/28 12:41:29;;;;;;;71.38;12.63;;;10.70;95.50;;;;;;5104634;28;20031;-58
2022/11/28 12:44:13;;;;;;;70.80;11.10;;;10.70;95.40;;;;;;5090344;28;20055;-58
2022/11/28 12:46:50;;;;;;;63.90;10.90;;;10.70;95.50;;;;;;5124006;28;20020;-58
2022/11/28 12:49:22;;;;;;;64.28;10.88;;;10.70;95.40;;;;;;5108363;28;20058;-58
2022/11/28 12:52:02;;;;;;;59.85;10.57;;;10.70;95.30;;;;;;5124667;28;20183;-58
2022/11/28 12:54:51;;;;;;;37.38;9.60;;;10.80;95.30;;;;;;5126188;28;20361;-58
2022/11/28 12:57:44;;;;;;;53.92;9.40;;;10.80;95.20;;;;;;5125946;28;20015;-58
2022/11/28 13:00:17;;;;;;;62.85;10.98;;;10.80;95.00;;;;;;5109812;28;20032;-58
2022/11/28 13:03:01;;;;;;;47.97;8.20;;;10.80;94.90;;;;;;5073505;28;20035;-58
2022/11/28 13:05:39;;;;;;;39.35;9.88;;;10.80;94.80;;;;;;5110114;28;20020;-59